Norwich, CT

5:20 AM EDT on March 29, 2015 (GMT -0400)
Kimball Road | | Change Station
CLOSE
Current Station
Personal Weather Station
Location: Lisbon, CT
Elevation: 404 ft
Nearby Weather Stations
Active Advisory: Special Statement Active Notice: Public Information Statement

Elev 404 ft 41.64 °N, 72.01 °W | Updated 45 seconds ago

Overcast
Overcast
21.2 °F
Feels Like 21 °F
N
2.7
Wind Variable Wind from NW

Today
High -- | Low -- °F
--% Chance of Precip.
Yesterday
High -- | Low -- °F
Precip. -- in
6:36 AM 7:09 PM
Waxing Gibbous, 70% visible
Pressure 30.12 in
Visibility 10.0 miles
Clouds Few 5500 ft
Overcast 7000 ft
Windchill 21 °F
Dew Point 10 °F
Humidity 62%
Rainfall 0.00 in
Snow Depth Not available.
UV 0 out of 12
Pollen 1.10 out of 12
Air Quality Not available.
Flu Activity Not available.
METAR KIJD 290852Z AUTO 35007KT 10SM FEW055 OVC070 M04/M13 A3011 RMK AO2 SLP199 T10391133 53012 $

More Conditions Fewer Conditions

Pressure 30.12 in
Visibility 10.0 miles
Clouds Few 5500 ft
Overcast 7000 ft
Windchill 21 °F
Dew Point 10 °F
Humidity 62%
Rainfall 0.00 in
Snow Depth Not available.
UV 0 out of 12
Pollen 1.10 out of 12
Air Quality Not available.
Flu Activity Not available.
METAR KIJD 290852Z AUTO 35007KT 10SM FEW055 OVC070 M04/M13 A3011 RMK AO2 SLP199 T10391133 53012 $

More Conditions Fewer Conditions

10-Day Weather Forecast

Almanac

Astronomy

Mar. 29, 2015 Rise Set
Actual Time
Civil Twilight
Nautical Twilight
Astronomical Twilight
Moon
Length of Visible Light
Length of Day
Tomorrow will be .
, % of the Moon is Illuminated

Today's Extremes

State Highs State Lows

Community

WunderPhotos

Upload Photos

1,809,187 photos uploaded!

WunderBlogs® & News

Nearby

Air Quality

  Air Quality AQ Index Pollutant
Not available.

Snow Depth

Station Depth Elevation

Earthquake Activity

City Distance Mag. Time & Date
Minimum magnitude displayed is 2.5.

Coastal Water Temperatures

Place Temperature

Stations

Nearby Weather Stations

Station Location Temp. Windchill Dew Point Humidity Wind Precip. Elev Updated Type
                   
Special Statement
Statement as of 2:56 AM EDT on March 29, 2015

Light snow has ended with some light snow across areas of western
Suffolk County. Temperatures will remain in the mid 20s into early
this morning... rising above freezing around midday. Expect snow to
remain on untreated surface... with patchy black ice on surface
where melting occurred earlier and refroze... into Sunday
morning. Please exercise caution when traveling.